Time;durP1;ratioP1;P1;durP2;ratioP2;P2;SDS_P1;SDS_P2;PMS_P1;PMS_P2;Temp;Humidity;BMP_temperature;BMP_pressure;BME280_temperature;BME280_humidity;BME280_pressure;Samples;Min_cycle;Max_cycle;Signal;HPM_P1;HPM_P2
2022/05/04 00:02:01;;;;;;;4.23;3.00;;;12.90;91.80;;;;;;4182232;28;20221;-81
2022/05/04 00:04:03;;;;;;;3.27;2.50;;;12.80;92.00;;;;;;4183463;28;20726;-81
2022/05/04 00:06:06;;;;;;;3.50;2.70;;;12.70;92.30;;;;;;4183403;28;20594;-80
2022/05/04 00:08:08;;;;;;;3.23;2.47;;;12.70;92.70;;;;;;4178731;28;20273;-80
2022/05/04 00:10:10;;;;;;;4.63;3.00;;;12.80;93.00;;;;;;4179270;28;20268;-81
2022/05/04 00:12:13;;;;;;;4.77;3.47;;;12.60;93.40;;;;;;4179174;28;20214;-81
2022/05/04 00:14:14;;;;;;;5.50;3.13;;;12.60;93.90;;;;;;4184181;28;20245;-81
2022/05/04 00:16:16;;;;;;;4.47;3.13;;;12.50;94.10;;;;;;4181828;28;20597;-81
2022/05/04 00:18:18;;;;;;;4.70;2.60;;;13.30;94.70;;;;;;4180780;28;20588;-81
2022/05/04 00:20:20;;;;;;;5.60;2.90;;;12.40;95.00;;;;;;4177970;28;20221;-81
2022/05/04 00:22:25;;;;;;;3.57;2.70;;;12.70;95.90;;;;;;4178353;28;20218;-80
2022/05/04 00:24:27;;;;;;;4.03;2.87;;;12.30;96.10;;;;;;4185266;28;20764;-82
2022/05/04 00:26:29;;;;;;;4.77;2.97;;;12.40;96.70;;;;;;4180336;28;20675;-81
2022/05/04 00:28:31;;;;;;;3.50;2.67;;;12.30;97.30;;;;;;4179439;28;20231;-81
2022/05/04 00:30:33;;;;;;;5.07;2.97;;;12.80;97.90;;;;;;4179462;28;20209;-82
2022/05/04 00:32:34;;;;;;;5.87;3.20;;;12.10;98.50;;;;;;4178722;28;20244;-82
2022/05/04 00:34:36;;;;;;;4.63;2.97;;;12.10;99.50;;;;;;4212572;22;20244;-78
2022/05/04 00:36:38;;;;;;;4.73;3.20;;;12.30;99.90;;;;;;4193073;28;20238;-78
2022/05/04 00:38:41;;;;;;;6.77;3.10;;;12.10;99.90;;;;;;4184924;28;20210;-78
2022/05/04 00:40:43;;;;;;;6.40;3.60;;;12.10;99.90;;;;;;4183919;28;20206;-78
2022/05/04 00:42:45;;;;;;;5.70;3.40;;;12.00;99.90;;;;;;4197264;28;20252;-77
2022/05/04 00:44:49;;;;;;;5.63;3.20;;;12.00;99.90;;;;;;4189885;28;20239;-78
2022/05/04 00:46:51;;;;;;;4.33;3.03;;;11.90;99.90;;;;;;4188179;28;20262;-78
2022/05/04 00:48:53;;;;;;;4.53;3.27;;;11.90;99.90;;;;;;4188894;28;20221;-78
2022/05/04 00:50:55;;;;;;;7.70;3.43;;;11.90;99.90;;;;;;4188115;28;20216;-78
2022/05/04 00:52:57;;;;;;;7.80;3.43;;;11.80;99.90;;;;;;4189070;28;20282;-78
2022/05/04 00:55:02;;;;;;;6.03;3.70;;;11.80;99.90;;;;;;4191074;28;20617;-78
2022/05/04 00:57:05;;;;;;;6.00;3.80;;;11.70;99.90;;;;;;4189232;28;20718;-77
2022/05/04 00:59:07;;;;;;;6.17;3.77;;;11.70;99.90;;;;;;4187370;28;20288;-78
2022/05/04 01:01:09;;;;;;;6.47;3.60;;;11.60;99.90;;;;;;4191424;28;20216;-77
2022/05/04 01:03:10;;;;;;;7.67;3.83;;;11.60;99.90;;;;;;4192789;28;20247;-78
2022/05/04 01:05:12;;;;;;;6.30;4.00;;;11.50;99.90;;;;;;4192248;28;20250;-78
2022/05/04 01:07:14;;;;;;;6.20;3.90;;;11.50;99.90;;;;;;4193603;28;20580;-78
2022/05/04 01:09:16;;;;;;;5.53;3.37;;;11.50;99.90;;;;;;4198184;28;20242;-78
2022/05/04 01:11:20;;;;;;;5.40;3.70;;;11.50;99.90;;;;;;4187111;28;20244;-78
2022/05/04 01:13:22;;;;;;;6.60;3.60;;;11.40;99.90;;;;;;4189456;28;20595;-78
2022/05/04 01:15:24;;;;;;;5.20;3.53;;;11.30;99.90;;;;;;4192028;28;20207;-78
2022/05/04 01:17:27;;;;;;;8.27;4.07;;;11.30;99.90;;;;;;4191253;28;20300;-77
2022/05/04 01:19:28;;;;;;;5.57;3.70;;;11.30;99.90;;;;;;4190472;28;20226;-78
2022/05/04 01:21:31;;;;;;;5.73;3.90;;;11.20;99.90;;;;;;4192198;28;20203;-78
2022/05/04 01:23:34;;;;;;;5.90;3.50;;;11.20;99.90;;;;;;4183972;28;20261;-78
2022/05/04 01:25:39;;;;;;;10.60;4.07;;;11.10;99.90;;;;;;4190838;28;20214;-77
2022/05/04 01:27:41;;;;;;;6.27;3.90;;;11.10;99.90;;;;;;4192311;28;20229;-78
2022/05/04 01:29:43;;;;;;;5.53;3.53;;;11.00;99.90;;;;;;4190677;28;20214;-78
2022/05/04 01:31:44;;;;;;;6.00;4.30;;;10.90;99.90;;;;;;4184873;28;20271;-78
2022/05/04 01:33:46;;;;;;;5.53;3.67;;;10.90;99.90;;;;;;4188352;28;20271;-78
2022/05/04 01:35:48;;;;;;;9.60;4.03;;;10.90;99.90;;;;;;4191644;28;20206;-78
2022/05/04 01:37:50;;;;;;;7.33;4.13;;;10.80;99.90;;;;;;4187351;28;20703;-78
2022/05/04 01:39:53;;;;;;;7.00;3.80;;;10.80;99.90;;;;;;4196469;28;20207;-80
2022/05/04 01:42:05;;;;;;;4.87;3.33;;;10.80;99.90;;;;;;4207558;28;20229;-80
2022/05/04 01:44:07;;;;;;;5.53;3.53;;;10.70;99.90;;;;;;4204458;28;20233;-80
2022/05/04 01:46:09;;;;;;;9.77;4.00;;;10.60;99.90;;;;;;4202781;28;20214;-80
2022/05/04 01:48:11;;;;;;;5.23;3.70;;;10.60;99.90;;;;;;4203053;28;20220;-80
2022/05/04 01:50:13;;;;;;;5.77;3.83;;;10.60;99.90;;;;;;4202742;28;20274;-80
2022/05/04 01:52:15;;;;;;;8.27;4.30;;;10.60;99.90;;;;;;4200246;28;20274;-80
2022/05/04 01:54:16;;;;;;;8.63;4.37;;;10.50;99.90;;;;;;4199936;28;20309;-80
2022/05/04 01:56:20;;;;;;;8.77;4.20;;;10.50;99.90;;;;;;4193648;28;20215;-80
2022/05/04 01:58:21;;;;;;;6.80;4.60;;;10.50;99.90;;;;;;4187514;28;20234;-80
2022/05/04 02:00:23;;;;;;;7.60;4.90;;;10.50;99.90;;;;;;4185291;28;20264;-80
2022/05/04 02:02:27;;;;;;;9.50;4.50;;;10.40;99.90;;;;;;4185654;28;20219;-80
2022/05/04 02:04:29;;;;;;;6.20;4.17;;;10.30;99.90;;;;;;4184958;28;20286;-80
2022/05/04 02:06:31;;;;;;;7.80;4.37;;;10.30;99.90;;;;;;4195757;28;20222;-80
2022/05/04 02:08:34;;;;;;;8.63;4.73;;;10.30;99.90;;;;;;4191600;28;20218;-80
2022/05/04 02:10:35;;;;;;;7.60;4.60;;;10.30;99.90;;;;;;4192700;28;20309;-80
2022/05/04 02:12:39;;;;;;;7.97;4.43;;;10.20;99.90;;;;;;4194182;28;20297;-80
2022/05/04 02:14:41;;;;;;;7.70;4.40;;;10.20;99.90;;;;;;4194012;28;20393;-80
2022/05/04 02:16:43;;;;;;;7.40;4.43;;;10.20;99.90;;;;;;4193522;28;20221;-80
2022/05/04 02:18:44;;;;;;;5.87;4.30;;;10.00;99.90;;;;;;4194127;28;20260;-80
2022/05/04 02:20:46;;;;;;;6.87;4.50;;;10.50;99.90;;;;;;4200675;28;20682;-80
2022/05/04 02:22:48;;;;;;;9.90;4.57;;;10.00;99.90;;;;;;4192759;28;20280;-80
2022/05/04 02:24:50;;;;;;;8.77;4.90;;;10.00;99.90;;;;;;4201688;28;20235;-80
2022/05/04 02:26:52;;;;;;;11.20;4.90;;;10.00;99.90;;;;;;4192381;28;20278;-80
2022/05/04 02:28:55;;;;;;;8.33;5.23;;;10.00;99.90;;;;;;4194773;28;20495;-80
2022/05/04 02:30:57;;;;;;;7.87;4.77;;;9.90;99.90;;;;;;4196428;28;20232;-80
2022/05/04 02:32:58;;;;;;;11.50;5.27;;;9.90;99.90;;;;;;4202614;28;20228;-80
2022/05/04 02:39:39;;;;;;;8.50;5.30;;;9.90;99.90;;;;;;4198571;28;20212;-80
2022/05/04 02:41:42;;;;;;;9.23;4.80;;;9.80;99.90;;;;;;4198793;28;20921;-80
2022/05/04 02:43:44;;;;;;;8.13;4.87;;;9.80;99.90;;;;;;4194476;28;20237;-80
2022/05/04 02:45:47;;;;;;;10.13;5.00;;;9.70;99.90;;;;;;4197182;28;20209;-80
2022/05/04 02:47:49;;;;;;;10.10;5.37;;;9.70;99.90;;;;;;4201648;28;20531;-80
2022/05/04 02:49:50;;;;;;;9.67;5.77;;;9.70;99.90;;;;;;4188074;28;20488;-80
2022/05/04 02:51:52;;;;;;;9.83;5.23;;;9.80;99.90;;;;;;4191887;28;20503;-80
2022/05/04 02:53:54;;;;;;;11.50;5.20;;;9.60;99.90;;;;;;4190895;28;21008;-80
2022/05/04 02:55:59;;;;;;;9.00;5.20;;;9.60;99.90;;;;;;4194436;28;20464;-80
2022/05/04 02:58:01;;;;;;;12.00;5.57;;;9.60;99.90;;;;;;4189143;28;20610;-81
2022/05/04 03:00:07;;;;;;;9.50;5.27;;;9.50;99.90;;;;;;4188386;28;20500;-80
2022/05/04 03:02:27;;;;;;;8.60;5.37;;;9.50;99.90;;;;;;4194199;28;20847;-81
2022/05/04 03:04:29;;;;;;;10.20;5.73;;;9.50;99.90;;;;;;4188407;28;20475;-81
2022/05/04 03:06:31;;;;;;;9.57;5.10;;;9.40;99.90;;;;;;4192218;28;20470;-81
2022/05/04 03:08:32;;;;;;;8.47;5.63;;;9.50;99.90;;;;;;4182575;28;20621;-80
2022/05/04 03:11:54;;;;;;;11.33;5.70;;;9.40;99.90;;;;;;4191011;28;20479;-80
2022/05/04 03:12:56;;;;;;;10.37;5.70;;;9.50;99.90;;;;;;4184672;28;20472;-81
2022/05/04 03:14:58;;;;;;;12.50;5.80;;;9.40;99.90;;;;;;4189822;28;20464;-81
2022/05/04 03:17:03;;;;;;;9.23;5.73;;;9.40;99.90;;;;;;4185778;28;20830;-81
2022/05/04 03:19:08;;;;;;;10.73;5.90;;;9.30;99.90;;;;;;4184989;28;20492;-81
2022/05/04 03:21:09;;;;;;;11.33;5.97;;;9.30;99.90;;;;;;4193566;28;20836;-81
2022/05/04 03:23:11;;;;;;;9.60;6.03;;;9.30;99.90;;;;;;4190886;28;20503;-81
2022/05/04 03:25:13;;;;;;;10.90;6.27;;;9.30;99.90;;;;;;4191345;28;20456;-81
2022/05/04 03:27:15;;;;;;;9.60;6.10;;;9.20;99.90;;;;;;4185163;28;20552;-81
2022/05/04 03:29:17;;;;;;;9.80;5.40;;;9.20;99.90;;;;;;4191255;28;20463;-81
2022/05/04 03:31:19;;;;;;;8.27;5.47;;;9.20;99.90;;;;;;4190411;28;20456;-81
2022/05/04 03:33:21;;;;;;;11.93;6.57;;;9.20;99.90;;;;;;4188227;28;20499;-80
2022/05/04 03:35:27;;;;;;;12.50;5.63;;;9.20;99.90;;;;;;4189809;28;20832;-80
2022/05/04 03:37:29;;;;;;;11.47;5.90;;;9.20;99.90;;;;;;4182958;28;20955;-81
2022/05/04 03:39:31;;;;;;;10.30;5.90;;;9.10;99.90;;;;;;4186159;28;20953;-81
2022/05/04 03:41:33;;;;;;;9.43;6.07;;;9.30;99.90;;;;;;4183279;28;20465;-81
2022/05/04 03:43:34;;;;;;;10.77;5.80;;;9.10;99.90;;;;;;4193176;28;20486;-81
2022/05/04 03:45:36;;;;;;;11.63;6.40;;;9.10;99.90;;;;;;4193471;28;20464;-78
2022/05/04 03:47:38;;;;;;;12.67;6.27;;;9.10;99.90;;;;;;4187698;28;20452;-78
2022/05/04 03:49:40;;;;;;;9.33;5.90;;;9.10;99.90;;;;;;4181564;28;20499;-78
2022/05/04 03:51:43;;;;;;;13.00;6.40;;;9.10;99.90;;;;;;4185635;28;20460;-78
2022/05/04 03:53:46;;;;;;;10.20;6.60;;;9.10;99.90;;;;;;4186179;28;20980;-78
2022/05/04 03:55:53;;;;;;;11.33;6.53;;;9.00;99.90;;;;;;4185075;28;20469;-78
2022/05/04 03:57:55;;;;;;;12.47;6.83;;;9.10;99.90;;;;;;4188312;28;20487;-78
2022/05/04 03:59:56;;;;;;;10.80;6.20;;;9.10;99.90;;;;;;4191100;28;20477;-78
2022/05/04 04:02:00;;;;;;;16.03;6.43;;;9.00;99.90;;;;;;4193376;28;20465;-81
2022/05/04 04:04:03;;;;;;;11.93;6.90;;;9.20;99.90;;;;;;4190347;28;20546;-81
2022/05/04 04:06:05;;;;;;;14.97;7.33;;;9.20;99.90;;;;;;4194785;28;20495;-82
2022/05/04 04:08:09;;;;;;;11.73;6.50;;;9.20;99.90;;;;;;4190123;28;20464;-79
2022/05/04 04:10:11;;;;;;;10.33;6.10;;;9.20;99.90;;;;;;4187268;28;20480;-77
2022/05/04 04:12:12;;;;;;;10.80;6.30;;;9.10;99.90;;;;;;4192359;28;20502;-78
2022/05/04 04:14:14;;;;;;;11.97;6.97;;;9.20;99.90;;;;;;4186678;28;20539;-78
2022/05/04 04:16:17;;;;;;;10.47;6.23;;;9.20;99.90;;;;;;4186582;28;20468;-78
2022/05/04 04:18:19;;;;;;;12.70;7.10;;;9.20;99.90;;;;;;4185402;28;20575;-78
2022/05/04 04:22:41;;;;;;;12.63;6.80;;;9.20;99.90;;;;;;4188878;28;20502;-78
2022/05/04 04:24:44;;;;;;;10.83;6.20;;;9.20;99.90;;;;;;4189451;28;20889;-78
2022/05/04 04:26:45;;;;;;;12.60;6.83;;;9.20;99.90;;;;;;4190370;28;20213;-80
2022/05/04 04:28:47;;;;;;;11.53;6.67;;;9.60;99.90;;;;;;4193533;28;20876;-79
2022/05/04 04:30:49;;;;;;;22.07;7.07;;;9.20;99.90;;;;;;4189280;28;20533;-79
2022/05/04 04:32:51;;;;;;;11.67;6.37;;;9.20;99.90;;;;;;4188345;28;20465;-80
2022/05/04 04:34:55;;;;;;;10.77;6.73;;;9.30;99.90;;;;;;4185413;28;20958;-81
2022/05/04 04:36:57;;;;;;;11.37;6.37;;;9.30;99.90;;;;;;4186082;28;20472;-83
2022/05/04 04:38:59;;;;;;;12.53;7.33;;;9.30;99.90;;;;;;4182860;28;20520;-82
2022/05/04 04:41:02;;;;;;;11.87;6.83;;;9.30;99.90;;;;;;4188679;28;20467;-81
2022/05/04 04:43:04;;;;;;;12.67;6.50;;;9.30;99.90;;;;;;4195883;28;20547;-81
2022/05/04 04:45:10;;;;;;;15.10;6.57;;;9.40;99.90;;;;;;4195345;28;20456;-81
2022/05/04 04:47:12;;;;;;;14.93;7.40;;;9.30;99.90;;;;;;4190340;28;20470;-81
2022/05/04 04:49:14;;;;;;;16.47;7.23;;;9.30;99.90;;;;;;4195698;28;20436;-81
2022/05/04 04:51:16;;;;;;;11.87;6.60;;;9.30;99.90;;;;;;4194661;28;20471;-81
2022/05/04 04:53:18;;;;;;;10.77;6.00;;;9.30;99.90;;;;;;4189737;28;20485;-81
2022/05/04 04:55:20;;;;;;;13.03;6.00;;;9.40;99.90;;;;;;4195118;28;20467;-82
2022/05/04 04:57:23;;;;;;;15.83;6.40;;;9.40;99.90;;;;;;4190478;28;20463;-85
2022/05/04 04:59:24;;;;;;;10.80;5.83;;;9.50;99.90;;;;;;4194045;28;20522;-82
2022/05/04 05:01:26;;;;;;;14.20;7.27;;;9.50;99.90;;;;;;4187472;28;20476;-81
2022/05/04 05:03:31;;;;;;;12.67;7.13;;;9.50;99.90;;;;;;4188075;28;20489;-81
2022/05/04 05:05:33;;;;;;;12.63;7.70;;;9.50;99.90;;;;;;4185408;28;20467;-82
2022/05/04 05:07:35;;;;;;;19.20;7.70;;;9.50;99.90;;;;;;4188071;28;20465;-81
2022/05/04 05:09:43;;;;;;;11.27;7.33;;;9.50;99.90;;;;;;4185114;28;20527;-81
2022/05/04 05:11:45;;;;;;;10.27;6.83;;;9.60;99.90;;;;;;4191226;28;20456;-82
2022/05/04 05:16:10;;;;;;;15.87;8.67;;;9.60;99.90;;;;;;4193102;28;20213;-81
2022/05/04 05:18:12;;;;;;;15.47;8.33;;;9.70;99.90;;;;;;4189177;28;20448;-81
2022/05/04 05:20:14;;;;;;;14.07;7.83;;;9.70;99.90;;;;;;4190768;28;20482;-81
2022/05/04 05:22:15;;;;;;;9.47;6.70;;;9.80;99.90;;;;;;4189632;28;20476;-80
2022/05/04 05:24:17;;;;;;;17.83;9.53;;;9.80;99.90;;;;;;4191610;28;20511;-81
2022/05/04 05:26:19;;;;;;;22.17;8.77;;;9.80;99.90;;;;;;4188296;28;20473;-81
2022/05/04 05:28:21;;;;;;;14.17;7.53;;;9.80;99.90;;;;;;4188791;28;20521;-81
2022/05/04 05:30:27;;;;;;;14.80;7.77;;;10.30;99.90;;;;;;4187227;28;20460;-81
2022/05/04 05:32:29;;;;;;;13.53;7.40;;;9.80;99.90;;;;;;4187988;28;20448;-81
2022/05/04 05:34:33;;;;;;;13.23;7.40;;;9.90;99.90;;;;;;4188730;28;20272;-81
2022/05/04 05:36:36;;;;;;;13.50;7.13;;;10.10;99.90;;;;;;4181089;28;20210;-81
2022/05/04 05:38:37;;;;;;;16.03;7.87;;;9.90;99.90;;;;;;4188816;28;20233;-81
2022/05/04 05:40:39;;;;;;;12.90;7.73;;;9.90;99.90;;;;;;4187082;28;20217;-81
2022/05/04 05:42:41;;;;;;;11.10;7.00;;;9.90;99.90;;;;;;4187745;28;20476;-81
2022/05/04 05:44:46;;;;;;;13.43;7.40;;;9.90;99.90;;;;;;4188768;28;20242;-82
2022/05/04 05:46:49;;;;;;;12.50;7.17;;;10.00;99.90;;;;;;4184654;28;20472;-81
2022/05/04 05:48:51;;;;;;;15.40;6.47;;;10.00;99.90;;;;;;4188560;28;20616;-81
2022/05/04 05:50:52;;;;;;;12.13;6.83;;;10.10;99.90;;;;;;4186737;28;20802;-81
2022/05/04 05:52:55;;;;;;;14.00;7.33;;;10.20;99.90;;;;;;4186816;28;20225;-81
2022/05/04 05:54:58;;;;;;;14.27;6.83;;;10.30;99.90;;;;;;4184527;28;20206;-79
2022/05/04 05:57:00;;;;;;;12.33;6.60;;;10.30;99.90;;;;;;4188444;28;20308;-79
2022/05/04 05:59:03;;;;;;;14.30;7.17;;;10.40;99.90;;;;;;4184632;28;20229;-79
2022/05/04 06:01:06;;;;;;;13.40;7.17;;;10.50;99.90;;;;;;4182096;28;20769;-79
2022/05/04 06:03:09;;;;;;;15.83;6.90;;;10.50;99.90;;;;;;4178802;28;20919;-79
2022/05/04 06:05:14;;;;;;;13.33;6.90;;;10.60;99.90;;;;;;4183605;28;20218;-79
2022/05/04 06:07:16;;;;;;;12.87;6.67;;;10.80;99.90;;;;;;4183832;28;20688;-80
2022/05/04 06:09:17;;;;;;;15.53;6.70;;;10.70;99.90;;;;;;4184989;28;20225;-80
2022/05/04 06:11:19;;;;;;;10.90;6.47;;;10.80;99.90;;;;;;4186485;28;20218;-81
2022/05/04 06:13:21;;;;;;;12.50;6.33;;;10.80;99.90;;;;;;4182805;28;20238;-80
2022/05/04 06:15:23;;;;;;;9.80;6.30;;;10.90;99.90;;;;;;4187374;28;20223;-80
2022/05/04 06:17:25;;;;;;;16.50;6.90;;;11.00;99.90;;;;;;4187518;28;20207;-81
2022/05/04 06:19:28;;;;;;;9.77;6.00;;;11.10;99.90;;;;;;4183274;28;20234;-79
2022/05/04 06:21:30;;;;;;;11.97;6.10;;;11.20;99.90;;;;;;4191845;28;20732;-79
2022/05/04 06:23:34;;;;;;;12.17;6.03;;;11.10;99.90;;;;;;4180961;28;20243;-79
2022/05/04 06:25:41;;;;;;;11.80;6.10;;;11.30;99.90;;;;;;4173459;28;20219;-80
2022/05/04 06:27:42;;;;;;;9.63;6.17;;;11.30;99.90;;;;;;4187246;28;20680;-80
2022/05/04 06:34:28;;;;;;;10.07;6.27;;;11.40;99.90;;;;;;4205899;22;20272;-78
2022/05/04 06:36:30;;;;;;;11.50;6.47;;;11.50;99.90;;;;;;4186252;28;20221;-77
2022/05/04 06:38:32;;;;;;;15.17;6.57;;;11.50;99.90;;;;;;4186366;28;20727;-79
2022/05/04 06:40:34;;;;;;;12.57;6.73;;;11.60;99.90;;;;;;4185116;28;20220;-79
2022/05/04 06:42:36;;;;;;;17.40;8.27;;;11.70;99.90;;;;;;4186079;28;20212;-77
2022/05/04 06:44:37;;;;;;;17.67;7.60;;;11.70;99.90;;;;;;4183028;28;20235;-77
2022/05/04 06:46:41;;;;;;;17.97;6.80;;;11.80;99.90;;;;;;4180649;28;20723;-78
2022/05/04 06:48:44;;;;;;;13.40;6.40;;;11.90;99.90;;;;;;4186273;28;20218;-79
2022/05/04 06:50:47;;;;;;;9.77;5.87;;;12.00;99.90;;;;;;4183085;28;20219;-78
2022/05/04 06:52:48;;;;;;;12.17;6.40;;;11.90;99.90;;;;;;4180986;28;20579;-77
2022/05/04 06:54:50;;;;;;;11.43;5.90;;;12.00;99.90;;;;;;4188241;28;20272;-77
2022/05/04 06:56:52;;;;;;;13.50;6.43;;;12.00;99.90;;;;;;4183186;28;20669;-77
2022/05/04 06:58:54;;;;;;;11.70;5.90;;;12.00;99.90;;;;;;4182730;28;20238;-77
2022/05/04 07:00:55;;;;;;;12.13;6.10;;;12.00;99.90;;;;;;4182838;28;20264;-78
2022/05/04 07:03:00;;;;;;;13.80;6.67;;;12.00;99.90;;;;;;4182959;28;20216;-78
2022/05/04 07:05:02;;;;;;;10.93;6.07;;;12.00;99.90;;;;;;4185705;28;20266;-77
2022/05/04 07:07:06;;;;;;;13.57;6.57;;;12.00;99.90;;;;;;4184105;28;20470;-78
2022/05/04 07:09:07;;;;;;;12.43;6.13;;;12.00;99.90;;;;;;4184547;28;20271;-77
2022/05/04 07:11:09;;;;;;;10.10;6.20;;;12.00;99.90;;;;;;4183469;28;20600;-78
2022/05/04 07:13:11;;;;;;;12.27;6.77;;;12.00;99.90;;;;;;4184707;28;20267;-80
2022/05/04 07:15:13;;;;;;;16.27;7.00;;;12.00;99.90;;;;;;4186765;28;20253;-77
2022/05/04 07:17:15;;;;;;;11.67;6.77;;;12.00;99.90;;;;;;4183656;28;20204;-79
2022/05/04 07:19:17;;;;;;;10.77;6.70;;;12.00;99.90;;;;;;4182141;28;20233;-77
2022/05/04 07:21:19;;;;;;;10.73;6.13;;;12.00;99.90;;;;;;4183952;28;20689;-78
2022/05/04 07:23:22;;;;;;;10.70;6.37;;;12.00;99.90;;;;;;4183880;28;20220;-77
2022/05/04 07:25:24;;;;;;;11.37;7.07;;;12.00;99.90;;;;;;4186334;28;20215;-79
2022/05/04 07:27:26;;;;;;;10.20;6.47;;;12.00;99.90;;;;;;4187348;28;20207;-77
2022/05/04 07:29:28;;;;;;;13.77;7.10;;;11.90;99.90;;;;;;4186997;28;20203;-77
2022/05/04 07:31:29;;;;;;;12.70;7.10;;;11.90;99.90;;;;;;4191504;28;20221;-77
2022/05/04 07:33:32;;;;;;;14.80;6.27;;;11.90;99.90;;;;;;4190341;28;20224;-78
2022/05/04 07:35:33;;;;;;;11.50;7.07;;;11.90;99.90;;;;;;4188659;28;20212;-78
2022/05/04 07:37:37;;;;;;;11.07;6.63;;;11.90;99.90;;;;;;4191400;28;20674;-77
2022/05/04 07:44:20;;;;;;;14.40;7.17;;;11.90;99.90;;;;;;4190782;28;20239;-78
2022/05/04 07:46:22;;;;;;;11.83;6.40;;;11.90;99.90;;;;;;4189389;28;20242;-79
2022/05/04 07:48:23;;;;;;;13.83;7.80;;;12.00;99.90;;;;;;4186586;28;20560;-78
2022/05/04 07:50:26;;;;;;;13.43;7.47;;;12.20;99.90;;;;;;4186494;28;20212;-78
2022/05/04 07:52:28;;;;;;;13.70;6.97;;;12.00;99.90;;;;;;4186698;28;20302;-78
2022/05/04 07:54:29;;;;;;;15.80;7.40;;;12.00;99.90;;;;;;4187783;28;20602;-78
2022/05/04 07:56:32;;;;;;;15.77;7.20;;;12.00;99.90;;;;;;4192594;28;20263;-79
2022/05/04 07:58:34;;;;;;;9.13;6.63;;;12.00;99.90;;;;;;4186458;28;20560;-79
2022/05/04 08:05:14;;;;;;;15.13;7.10;;;11.90;99.90;;;;;;4186212;28;20263;-78
2022/05/04 08:07:17;;;;;;;12.33;7.13;;;11.90;99.90;;;;;;4183512;28;20259;-79
2022/05/04 08:09:18;;;;;;;13.50;7.57;;;11.90;99.90;;;;;;4190399;28;20282;-79
2022/05/04 08:11:20;;;;;;;14.50;7.70;;;11.90;99.90;;;;;;4186733;28;20679;-78
2022/05/04 08:13:23;;;;;;;11.97;7.63;;;11.90;99.90;;;;;;4189624;28;20301;-79
2022/05/04 08:15:25;;;;;;;15.00;7.53;;;11.90;99.90;;;;;;4188759;28;20273;-78
2022/05/04 08:17:27;;;;;;;12.97;7.63;;;11.80;99.90;;;;;;4191683;28;20214;-80
2022/05/04 08:19:29;;;;;;;13.63;7.50;;;11.90;99.90;;;;;;4190022;28;20774;-81
2022/05/04 08:21:30;;;;;;;14.53;7.80;;;11.90;99.90;;;;;;4190187;28;20217;-80
2022/05/04 08:23:32;;;;;;;14.40;7.53;;;11.90;99.90;;;;;;4191737;28;20221;-80
2022/05/04 08:25:34;;;;;;;13.33;7.00;;;11.90;99.90;;;;;;4188627;28;20283;-80
2022/05/04 08:27:36;;;;;;;15.27;8.17;;;11.90;99.90;;;;;;4192398;28;20585;-78
2022/05/04 08:29:39;;;;;;;18.10;8.00;;;11.90;99.90;;;;;;4188863;28;20263;-77
2022/05/04 08:31:41;;;;;;;14.80;7.63;;;11.90;99.90;;;;;;4193015;28;20217;-77
2022/05/04 08:33:43;;;;;;;19.33;8.90;;;12.00;99.90;;;;;;4188971;28;20322;-81
2022/05/04 08:35:45;;;;;;;19.73;8.13;;;12.20;99.90;;;;;;4179648;28;20608;-79
2022/05/04 08:37:47;;;;;;;21.10;9.23;;;11.80;99.90;;;;;;4186152;28;20219;-80
2022/05/04 08:39:49;;;;;;;15.47;8.67;;;11.80;99.90;;;;;;4180561;28;20237;-80
2022/05/04 08:41:52;;;;;;;24.77;9.37;;;11.70;99.90;;;;;;4186890;28;20212;-81
2022/05/04 08:43:58;;;;;;;18.43;9.23;;;11.60;99.90;;;;;;4181161;28;20686;-81
2022/05/04 08:46:04;;;;;;;15.33;9.03;;;11.60;99.90;;;;;;4187614;28;20302;-79
2022/05/04 08:48:07;;;;;;;14.93;8.67;;;11.50;99.90;;;;;;4177874;28;20281;-80
2022/05/04 08:50:11;;;;;;;17.87;8.70;;;11.40;99.90;;;;;;4183794;28;20301;-81
2022/05/04 08:52:13;;;;;;;19.70;9.10;;;11.40;99.90;;;;;;4188092;28;20222;-80
2022/05/04 08:54:15;;;;;;;19.73;9.83;;;11.40;99.90;;;;;;4189473;28;20277;-79
2022/05/04 08:56:19;;;;;;;20.07;9.57;;;11.50;99.90;;;;;;4184282;28;20216;-80
2022/05/04 08:58:21;;;;;;;17.67;8.93;;;11.40;99.90;;;;;;4188777;28;20594;-80
2022/05/04 09:00:24;;;;;;;19.47;9.00;;;11.40;99.90;;;;;;4182924;28;20562;-79
2022/05/04 09:02:27;;;;;;;18.77;8.83;;;11.40;99.90;;;;;;4181013;28;20239;-80
2022/05/04 09:04:31;;;;;;;20.60;9.90;;;11.40;99.90;;;;;;4189527;28;20234;-79
2022/05/04 09:06:36;;;;;;;17.70;9.17;;;11.40;99.90;;;;;;4185919;28;20889;-76
2022/05/04 09:08:54;;;;;;;13.97;9.20;;;11.40;99.90;;;;;;4183847;28;20207;-79
2022/05/04 09:10:56;;;;;;;19.17;9.10;;;11.50;99.90;;;;;;4185132;28;20206;-81
2022/05/04 09:12:59;;;;;;;18.47;9.30;;;11.50;99.90;;;;;;4186914;28;20218;-79
2022/05/04 09:15:00;;;;;;;14.40;8.77;;;11.40;99.90;;;;;;4186782;28;20658;-79
2022/05/04 09:17:04;;;;;;;17.57;8.73;;;11.50;99.90;;;;;;4182629;28;20294;-79
2022/05/04 09:19:08;;;;;;;15.97;9.23;;;11.50;99.90;;;;;;4183820;28;20718;-79
2022/05/04 09:21:21;;;;;;;21.33;10.00;;;11.50;99.90;;;;;;4187346;28;20247;-80
2022/05/04 09:23:25;;;;;;;16.73;9.63;;;11.50;99.90;;;;;;4183280;28;20215;-79
2022/05/04 09:25:26;;;;;;;16.87;9.37;;;11.60;99.90;;;;;;4190656;28;20218;-81
2022/05/04 09:27:30;;;;;;;22.70;10.10;;;11.60;99.90;;;;;;4187793;28;20272;-78
2022/05/04 09:29:34;;;;;;;19.70;9.90;;;11.60;99.90;;;;;;4187783;28;20668;-76
2022/05/04 09:31:39;;;;;;;17.97;9.63;;;11.70;99.90;;;;;;4184769;28;20240;-78
2022/05/04 09:33:40;;;;;;;18.53;10.20;;;11.80;99.90;;;;;;4184366;28;20249;-81
2022/05/04 09:35:43;;;;;;;18.57;9.67;;;11.80;99.90;;;;;;4189228;28;20219;-78
2022/05/04 09:44:55;;;;;;;18.57;9.57;;;12.00;99.90;;;;;;4185387;28;20285;-78
2022/05/04 09:46:56;;;;;;;18.47;10.47;;;12.00;99.90;;;;;;4183395;28;20275;-79
2022/05/04 09:48:58;;;;;;;18.47;9.13;;;12.00;99.90;;;;;;4190998;28;20215;-77
2022/05/04 09:51:06;;;;;;;20.40;9.70;;;12.00;99.90;;;;;;4184842;28;20765;-79
2022/05/04 09:53:08;;;;;;;17.60;9.23;;;12.10;99.90;;;;;;4178807;28;20253;-79
2022/05/04 09:55:17;;;;;;;17.93;9.83;;;12.10;99.90;;;;;;4189731;28;20287;-78
2022/05/04 09:57:20;;;;;;;14.77;8.70;;;12.10;99.90;;;;;;4181407;28;20211;-79
2022/05/04 09:59:23;;;;;;;15.43;9.03;;;12.20;99.90;;;;;;4189412;28;20220;-79
2022/05/04 10:01:25;;;;;;;17.63;9.13;;;12.20;99.90;;;;;;4190074;28;20281;-79
2022/05/04 10:03:27;;;;;;;17.90;9.73;;;12.20;99.90;;;;;;4197865;28;20240;-78
2022/05/04 10:05:29;;;;;;;17.40;9.50;;;12.20;99.90;;;;;;4198464;28;20218;-78
2022/05/04 10:07:33;;;;;;;14.80;8.77;;;12.30;99.90;;;;;;4201280;28;20222;-79
2022/05/04 10:09:34;;;;;;;19.17;9.80;;;12.30;99.90;;;;;;4197509;28;20212;-79
2022/05/04 10:11:37;;;;;;;16.37;9.50;;;12.30;99.90;;;;;;4205268;28;20205;-80
2022/05/04 10:13:39;;;;;;;18.10;8.97;;;12.40;99.90;;;;;;4207902;28;20236;-79
2022/05/04 10:15:42;;;;;;;14.93;9.53;;;12.30;99.90;;;;;;4210034;28;20230;-79
2022/05/04 10:17:48;;;;;;;15.63;9.47;;;12.50;99.90;;;;;;4205440;28;20208;-79
2022/05/04 10:19:55;;;;;;;17.13;9.80;;;12.50;99.90;;;;;;4203895;28;20264;-79
2022/05/04 10:22:00;;;;;;;16.63;10.23;;;12.60;99.90;;;;;;4199476;28;20209;-79
2022/05/04 10:24:07;;;;;;;22.07;10.13;;;12.60;99.90;;;;;;4186311;28;20229;-79
2022/05/04 10:26:12;;;;;;;16.83;9.67;;;12.70;99.90;;;;;;4190632;28;20658;-79
2022/05/04 10:28:15;;;;;;;19.53;9.57;;;12.80;99.90;;;;;;4188979;28;20743;-79
2022/05/04 10:30:32;;;;;;;21.67;9.30;;;12.90;99.90;;;;;;4185634;28;20251;-79
2022/05/04 10:32:36;;;;;;;18.97;9.77;;;12.90;99.90;;;;;;4187099;28;20206;-79
2022/05/04 10:34:42;;;;;;;16.77;9.37;;;13.00;99.90;;;;;;4182949;28;20259;-79
2022/05/04 10:36:47;;;;;;;15.00;9.10;;;13.10;99.90;;;;;;4184642;28;20238;-79
2022/05/04 10:38:55;;;;;;;18.13;8.93;;;13.20;99.90;;;;;;4187947;28;20224;-79
2022/05/04 10:41:00;;;;;;;16.97;9.37;;;13.30;99.90;;;;;;4186034;28;20235;-79
2022/05/04 10:43:03;;;;;;;16.43;10.30;;;13.40;99.90;;;;;;4189678;28;20216;-79
2022/05/04 10:45:14;;;;;;;16.13;9.57;;;13.60;99.90;;;;;;4181991;28;20241;-79
2022/05/04 10:47:18;;;;;;;12.70;8.43;;;13.60;99.90;;;;;;4180955;28;20329;-79
2022/05/04 10:49:34;;;;;;;17.43;8.13;;;13.80;99.90;;;;;;4177639;28;20305;-79
2022/05/04 10:51:38;;;;;;;12.80;7.53;;;13.90;99.90;;;;;;4182064;28;20210;-79
2022/05/04 10:53:44;;;;;;;15.23;7.13;;;14.00;99.90;;;;;;4189234;28;20237;-79
2022/05/04 10:55:55;;;;;;;12.23;7.13;;;14.10;99.90;;;;;;4183502;28;20275;-78
2022/05/04 10:57:58;;;;;;;14.47;7.00;;;14.30;99.90;;;;;;4189859;28;20293;-79
2022/05/04 11:00:04;;;;;;;11.20;7.83;;;14.40;99.90;;;;;;4191553;28;20213;-79
2022/05/04 11:02:13;;;;;;;12.83;7.30;;;14.60;99.90;;;;;;4187933;28;20210;-79
2022/05/04 11:04:22;;;;;;;15.33;7.33;;;14.70;99.90;;;;;;4190652;28;20265;-79
2022/05/04 11:06:27;;;;;;;11.90;6.80;;;14.90;99.90;;;;;;4190736;28;20219;-79
2022/05/04 11:08:34;;;;;;;12.33;7.37;;;15.00;99.90;;;;;;4193877;28;20581;-79